Green Garnet — 3FEH6 — position and weather

sailwx.info

Track history (hours):
 
Tides and Currents Weather Stations Pressure Air Temp Water Temp Dewpoint Dewpoint Depression Visibility Wind Speed Wind Dir Waves Ship Positions

Green Garnet

Last reported at 2017-Jun-23 20:55 UTC. Time now 2017-Jun-26 12:17 UTC.
Position S 38°06' E 144°46'.

Length 209 m; draft 8 m.

Type: Cargo ship. MMSI: 356345000.

Date/timePositionNaut miles runAvg speedWind from/ knotsBaromVisibWave heightAir tempDewpointWater temp
2017-Jun-23 20:55S 38°06' E 144°46'  
2017-Jun-19 04:19S 38°53' E 147°34'411.5
2017-Jun-19 03:57S 38°51' E 147°39'711.2
2017-Jun-19 03:21S 38°49' E 147°47'411.3
2017-Jun-19 02:59S 38°48' E 147°52'911.5
2017-Jun-19 02:12S 38°45' E 148°03'211.3
2017-Jun-19 02:00S 38°44' E 148°06'611.5
2017-Jun-19 01:30S 38°42' E 148°13'1711.8
2017-Jun-19 00:04S 38°35' E 148°32'212.6
2017-Jun-18 23:55S 38°34' E 148°35'512.5
2017-Jun-18 23:30S 38°32' E 148°41'612.5
2017-Jun-18 22:59S 38°29' E 148°48'612.6
2017-Jun-18 22:29S 38°26' E 148°54'612.2
2017-Jun-18 22:00S 38°22' E 149°00'612.0
2017-Jun-18 21:30S 38°18' E 149°07'612.0
2017-Jun-18 21:00S 38°15' E 149°12'611.9
2017-Jun-18 20:30S 38°11' E 149°19'32711.7
2017-Jun-17 16:33S 33°21' E 152°25'114.9
2017-Jun-17 16:29S 33°19' E 152°25'914.3
2017-Jun-17 15:52S 33°11' E 152°29'514.5
2017-Jun-17 15:30S 33°07' E 152°32'714.4
2017-Jun-17 15:00S 32°60' E 152°35'1413.8
2017-Jun-17 14:00S 32°47' E 152°41'713.3
2017-Jun-17 13:30S 32°41' E 152°44'713.7
2017-Jun-17 13:00S 32°35' E 152°48'33712.9
2017-Jun-16 10:48S 27°03' E 153°56'  
Track history (hours):
 
Tides and Currents Weather Stations Pressure Air Temp Water Temp Dewpoint Dewpoint Depression Visibility Wind Speed Wind Dir Waves Ship Positions

Green Garnet

Last reported at 2017-Jun-23 20:55 UTC. Time now 2017-Jun-26 12:17 UTC.
Position S 38°06' E 144°46'.

Length 209 m; draft 8 m.

Type: Cargo ship. MMSI: 356345000.

Date/timePositionNaut miles runAvg speedWind from/ knotsBaromVisibWave heightAir tempDewpointWater temp
2017-Jun-23 20:55S 38°06' E 144°46'  
2017-Jun-19 04:19S 38°53' E 147°34'411.5
2017-Jun-19 03:57S 38°51' E 147°39'711.2
2017-Jun-19 03:21S 38°49' E 147°47'411.3
2017-Jun-19 02:59S 38°48' E 147°52'911.5
2017-Jun-19 02:12S 38°45' E 148°03'211.3
2017-Jun-19 02:00S 38°44' E 148°06'611.5
2017-Jun-19 01:30S 38°42' E 148°13'1711.8
2017-Jun-19 00:04S 38°35' E 148°32'212.6
2017-Jun-18 23:55S 38°34' E 148°35'512.5
2017-Jun-18 23:30S 38°32' E 148°41'612.5
2017-Jun-18 22:59S 38°29' E 148°48'612.6
2017-Jun-18 22:29S 38°26' E 148°54'612.2
2017-Jun-18 22:00S 38°22' E 149°00'612.0
2017-Jun-18 21:30S 38°18' E 149°07'612.0
2017-Jun-18 21:00S 38°15' E 149°12'611.9
2017-Jun-18 20:30S 38°11' E 149°19'32711.7
2017-Jun-17 16:33S 33°21' E 152°25'114.9
2017-Jun-17 16:29S 33°19' E 152°25'914.3
2017-Jun-17 15:52S 33°11' E 152°29'514.5
2017-Jun-17 15:30S 33°07' E 152°32'714.4
2017-Jun-17 15:00S 32°60' E 152°35'1413.8
2017-Jun-17 14:00S 32°47' E 152°41'713.3
2017-Jun-17 13:30S 32°41' E 152°44'713.7
2017-Jun-17 13:00S 32°35' E 152°48'33712.9
2017-Jun-16 10:48S 27°03' E 153°56'  

Dump ship's entire track history